createdAt,value
2022-12-09T00:00:21.254Z,6.12
2022-12-09T00:02:49.062Z,6.29
2022-12-09T00:05:17.571Z,6.29
2022-12-09T00:07:45.574Z,6.18
2022-12-09T00:10:13.442Z,6.25
2022-12-09T00:12:42.630Z,6.45
2022-12-09T00:15:11.202Z,6.53
2022-12-09T00:17:38.981Z,6.37
2022-12-09T00:20:08.770Z,6.27
2022-12-09T00:22:36.549Z,6.18
2022-12-09T00:25:04.863Z,6.10
2022-12-09T00:27:32.663Z,6.06
2022-12-09T00:30:01.923Z,6.01
2022-12-09T00:32:29.686Z,6.16
2022-12-09T00:34:57.764Z,6.25
2022-12-09T00:37:25.528Z,6.13
2022-12-09T00:39:53.227Z,6.06
2022-12-09T00:42:21.206Z,6.03
2022-12-09T00:44:49.193Z,5.98
2022-12-09T00:47:18.714Z,5.91
2022-12-09T00:49:46.398Z,5.90
2022-12-09T00:52:14.185Z,5.93
2022-12-09T00:54:42.195Z,5.87
2022-12-09T00:57:10.128Z,5.81
2022-12-09T00:59:37.960Z,5.77
2022-12-09T01:02:05.765Z,5.77
2022-12-09T01:04:35.170Z,5.84
2022-12-09T01:07:03.083Z,5.98
2022-12-09T01:09:30.981Z,6.12
2022-12-09T01:11:59.044Z,6.22
2022-12-09T01:14:26.910Z,6.26
2022-12-09T01:16:54.758Z,6.09
2022-12-09T01:19:22.696Z,5.96
2022-12-09T01:21:54.905Z,5.89
2022-12-09T01:24:23.062Z,5.85
2022-12-09T01:26:50.768Z,5.83
2022-12-09T01:29:18.486Z,5.81
2022-12-09T01:31:46.243Z,5.99
2022-12-09T01:34:13.995Z,6.06
2022-12-09T01:36:41.751Z,6.09
2022-12-09T01:39:11.597Z,6.14
2022-12-09T01:41:39.622Z,5.90
2022-12-09T01:44:13.134Z,5.82
2022-12-09T01:46:41.628Z,5.92
2022-12-09T01:49:13.233Z,5.85
2022-12-09T01:51:41.929Z,5.73
2022-12-09T01:54:11.045Z,5.63
2022-12-09T01:56:41.621Z,5.54
2022-12-09T01:59:11.781Z,5.65
2022-12-09T02:01:40.426Z,5.73
2022-12-09T02:04:09.102Z,5.65
2022-12-09T02:06:38.010Z,5.55
2022-12-09T02:09:06.642Z,5.48
2022-12-09T02:11:46.171Z,5.42
2022-12-09T02:14:19.267Z,5.49
2022-12-09T02:16:57.240Z,5.64
2022-12-09T02:19:40.573Z,5.82
2022-12-09T02:22:12.103Z,5.70
2022-12-09T02:24:44.946Z,5.48
2022-12-09T02:27:20.042Z,5.44
2022-12-09T02:30:00.401Z,5.60
2022-12-09T02:33:00.108Z,5.76
2022-12-09T02:35:37.311Z,5.85
2022-12-09T02:38:10.589Z,5.80
2022-12-09T02:40:45.661Z,5.84
2022-12-09T02:43:16.260Z,5.93
2022-12-09T02:45:45.272Z,5.94
2022-12-09T02:48:17.122Z,5.96
2022-12-09T02:50:48.251Z,5.95
2022-12-09T02:53:17.268Z,5.66
2022-12-09T02:55:49.040Z,5.43
2022-12-09T02:58:16.841Z,5.30
2022-12-09T03:00:44.923Z,5.23
2022-12-09T03:03:17.605Z,5.17
2022-12-09T03:05:53.068Z,5.28
2022-12-09T03:08:32.617Z,5.34
2022-12-09T03:11:04.498Z,5.25
2022-12-09T03:13:51.821Z,5.14
2022-12-09T03:16:26.844Z,5.04
2022-12-09T03:18:59.665Z,4.95
2022-12-09T03:21:32.986Z,4.85
2022-12-09T03:24:03.190Z,4.79
2022-12-09T03:26:34.566Z,4.77
2022-12-09T03:29:05.353Z,4.72
2022-12-09T03:31:35.743Z,4.67
2022-12-09T03:34:06.369Z,4.61
2022-12-09T03:36:39.264Z,4.52
2022-12-09T03:39:11.811Z,4.47
2022-12-09T03:41:45.048Z,4.44
2022-12-09T03:44:15.250Z,4.41
2022-12-09T03:46:43.527Z,4.40
2022-12-09T03:49:12.260Z,4.41
2022-12-09T03:51:45.426Z,4.42
2022-12-09T03:54:20.434Z,4.42
2022-12-09T03:56:52.805Z,4.42
2022-12-09T03:59:23.266Z,4.68
2022-12-09T04:01:52.217Z,4.78
2022-12-09T04:04:20.544Z,4.59
2022-12-09T04:06:53.599Z,4.47
2022-12-09T04:09:21.582Z,4.40
2022-12-09T04:11:49.381Z,4.32
2022-12-09T04:14:17.195Z,4.30
2022-12-09T04:16:45.493Z,4.27
2022-12-09T04:19:13.687Z,4.26
2022-12-09T04:21:42.032Z,4.23
2022-12-09T04:24:11.509Z,4.21
2022-12-09T04:26:39.450Z,4.14
2022-12-09T04:29:07.675Z,4.13
2022-12-09T04:31:35.844Z,4.12
2022-12-09T04:34:09.163Z,4.10
2022-12-09T04:36:38.117Z,4.13
2022-12-09T04:39:06.155Z,4.09
2022-12-09T04:41:35.348Z,4.07
2022-12-09T04:44:03.162Z,4.03
2022-12-09T04:46:31.027Z,4.01
2022-12-09T04:48:59.077Z,4.03
2022-12-09T04:51:26.900Z,4.00
2022-12-09T04:53:54.981Z,4.18
2022-12-09T04:56:23.637Z,4.39
2022-12-09T04:58:53.121Z,4.44
2022-12-09T05:01:30.587Z,4.64
2022-12-09T05:03:59.663Z,4.59
2022-12-09T05:06:28.258Z,4.40
2022-12-09T05:08:56.648Z,4.28
2022-12-09T05:11:25.074Z,4.20
2022-12-09T05:13:55.307Z,4.12
2022-12-09T05:16:23.991Z,4.06
2022-12-09T05:18:52.393Z,4.06
2022-12-09T05:21:21.819Z,4.12
2022-12-09T05:23:50.375Z,4.14
2022-12-09T05:26:21.292Z,4.18
2022-12-09T05:28:49.476Z,4.22
2022-12-09T05:31:20.875Z,4.20
2022-12-09T05:33:50.425Z,4.16
2022-12-09T05:36:20.366Z,4.19
2022-12-09T05:38:49.020Z,4.15
2022-12-09T05:41:17.165Z,4.12
2022-12-09T05:43:45.212Z,4.14
2022-12-09T05:46:14.789Z,4.22
2022-12-09T05:48:45.063Z,4.25
2022-12-09T05:51:16.178Z,4.32
2022-12-09T05:53:44.580Z,4.51
2022-12-09T05:56:16.368Z,4.66
2022-12-09T05:58:45.021Z,4.53
2022-12-09T06:01:13.695Z,4.60
2022-12-09T06:03:42.056Z,4.72
2022-12-09T06:06:13.741Z,4.66
2022-12-09T06:08:43.644Z,4.54
2022-12-09T06:11:14.452Z,4.52
2022-12-09T06:13:42.449Z,4.65
2022-12-09T06:16:11.287Z,4.73
2022-12-09T06:18:39.421Z,4.58
2022-12-09T06:21:09.274Z,4.49
2022-12-09T06:23:41.416Z,4.66
2022-12-09T06:26:17.807Z,4.60
2022-12-09T06:28:46.264Z,4.48
2022-12-09T06:31:14.199Z,4.36
2022-12-09T06:33:59.042Z,4.26
2022-12-09T06:36:29.177Z,4.21
2022-12-09T06:39:07.616Z,4.19
2022-12-09T06:41:38.137Z,4.14
2022-12-09T06:44:06.772Z,4.11
2022-12-09T06:46:34.746Z,4.10
2022-12-09T06:49:02.741Z,4.09
2022-12-09T06:51:30.744Z,4.08
2022-12-09T06:53:59.916Z,4.07
2022-12-09T06:56:27.843Z,4.12
2022-12-09T06:58:55.595Z,4.21
2022-12-09T07:01:25.927Z,4.20
2022-12-09T07:03:56.050Z,4.11
2022-12-09T07:06:28.802Z,4.06
2022-12-09T07:09:00.163Z,4.04
2022-12-09T07:11:29.062Z,4.00
2022-12-09T07:13:57.026Z,4.03
2022-12-09T07:16:25.227Z,4.03
2022-12-09T07:18:53.848Z,4.03
2022-12-09T07:21:23.382Z,4.04
2022-12-09T07:23:51.884Z,4.03
2022-12-09T07:26:22.221Z,4.04
2022-12-09T07:28:50.582Z,4.03
2022-12-09T07:31:22.370Z,4.00
2022-12-09T07:33:51.572Z,3.99
2022-12-09T07:36:21.443Z,4.03
2022-12-09T07:38:50.338Z,4.07
2022-12-09T07:41:19.388Z,4.10
2022-12-09T07:43:49.665Z,4.12
2022-12-09T07:46:19.913Z,4.16
2022-12-09T07:48:48.343Z,4.15
2022-12-09T07:51:17.142Z,4.15
2022-12-09T07:53:45.406Z,4.18
2022-12-09T07:56:15.682Z,4.19
2022-12-09T07:58:44.611Z,4.21
2022-12-09T08:01:16.756Z,4.22
2022-12-09T08:03:45.314Z,4.28
2022-12-09T08:06:15.174Z,4.32
2022-12-09T08:08:44.260Z,4.41
2022-12-09T08:11:14.653Z,4.46
2022-12-09T08:13:43.155Z,4.49
2022-12-09T08:16:14.187Z,4.52
2022-12-09T08:18:43.945Z,4.56
2022-12-09T08:21:14.001Z,4.68
2022-12-09T08:23:42.661Z,4.71
2022-12-09T08:26:11.925Z,4.79
2022-12-09T08:28:40.242Z,4.92
2022-12-09T08:31:09.432Z,4.95
2022-12-09T08:33:39.102Z,4.92
2022-12-09T08:36:12.314Z,5.10
2022-12-09T08:38:40.220Z,5.34
2022-12-09T08:41:14.959Z,5.35
2022-12-09T08:43:44.272Z,5.35
2022-12-09T08:46:13.837Z,5.33
2022-12-09T08:48:44.620Z,5.35
2022-12-09T08:51:13.357Z,5.42
2022-12-09T08:53:41.562Z,5.39
2022-12-09T08:56:11.857Z,5.44
2022-12-09T08:58:40.313Z,5.38
2022-12-09T09:01:09.000Z,5.48
2022-12-09T09:03:37.400Z,5.47
2022-12-09T09:06:10.831Z,5.48
2022-12-09T09:08:39.987Z,5.57
2022-12-09T09:11:11.522Z,5.57
2022-12-09T09:13:40.706Z,5.62
2022-12-09T09:16:11.389Z,5.73
2022-12-09T09:18:40.190Z,5.84
2022-12-09T09:21:11.050Z,5.81
2022-12-09T09:23:39.389Z,5.76
2022-12-09T09:26:12.435Z,5.96
2022-12-09T09:28:40.604Z,6.11
2022-12-09T09:31:12.513Z,6.24
2022-12-09T09:33:40.736Z,6.29
2022-12-09T09:36:15.112Z,6.38
2022-12-09T09:38:43.311Z,6.32
2022-12-09T09:41:21.783Z,6.29
2022-12-09T09:43:50.047Z,6.30
2022-12-09T09:46:22.476Z,6.34
2022-12-09T09:48:52.907Z,6.29
2022-12-09T09:51:23.021Z,6.28
2022-12-09T09:53:53.384Z,6.28
2022-12-09T09:56:29.282Z,6.38
2022-12-09T09:59:08.290Z,6.46
2022-12-09T10:01:38.797Z,6.55
2022-12-09T10:04:14.935Z,6.70
2022-12-09T10:06:51.195Z,7.14
2022-12-09T10:09:23.908Z,7.51
2022-12-09T10:12:04.697Z,7.84
2022-12-09T10:14:44.574Z,7.86
2022-12-09T10:17:25.121Z,7.78
2022-12-09T10:19:56.899Z,7.67
2022-12-09T10:22:30.655Z,7.76
2022-12-09T10:25:00.919Z,7.77
2022-12-09T10:27:32.280Z,8.17
2022-12-09T10:30:03.627Z,9.45
2022-12-09T10:32:34.833Z,11.08
2022-12-09T10:35:14.542Z,11.75
2022-12-09T10:37:44.585Z,11.73
2022-12-09T10:40:23.121Z,12.31
2022-12-09T10:43:11.011Z,13.17
2022-12-09T10:46:16.644Z,13.77
2022-12-09T10:48:38.558Z,13.96
2022-12-09T10:51:11.533Z,13.53
2022-12-09T10:53:46.746Z,12.76
2022-12-09T10:56:19.391Z,12.19
2022-12-09T10:58:47.375Z,12.36
2022-12-09T11:01:17.441Z,13.10
2022-12-09T11:03:50.754Z,13.76
2022-12-09T11:06:28.384Z,13.68
2022-12-09T11:09:00.296Z,13.35
2022-12-09T11:11:46.357Z,12.94
2022-12-09T11:14:26.431Z,12.28
2022-12-09T11:16:56.595Z,12.06
2022-12-09T11:19:37.082Z,12.26
2022-12-09T11:22:22.121Z,11.92
2022-12-09T11:24:54.642Z,11.27
2022-12-09T11:27:28.923Z,10.75
2022-12-09T11:30:13.077Z,10.39
2022-12-09T11:32:57.705Z,9.98
2022-12-09T11:35:32.181Z,9.69
2022-12-09T11:38:03.825Z,9.49
2022-12-09T11:40:33.736Z,9.23
2022-12-09T11:43:01.699Z,9.15
2022-12-09T11:45:32.093Z,9.09
2022-12-09T11:48:32.005Z,9.07
2022-12-09T11:51:03.208Z,8.90
2022-12-09T11:53:32.476Z,8.75
2022-12-09T11:56:08.278Z,8.62
2022-12-09T11:58:41.940Z,8.39
2022-12-09T12:01:15.508Z,8.26
2022-12-09T12:03:51.193Z,8.16
2022-12-09T12:06:23.307Z,8.11
2022-12-09T12:08:54.601Z,8.06
2022-12-09T12:11:28.034Z,8.10
2022-12-09T12:14:02.623Z,8.10
2022-12-09T12:16:39.433Z,8.06
2022-12-09T12:19:14.671Z,8.08
2022-12-09T12:22:07.488Z,8.01
2022-12-09T12:25:02.624Z,7.78
2022-12-09T12:27:47.757Z,7.69
2022-12-09T12:30:19.463Z,7.61
2022-12-09T12:33:59.715Z,7.52
2022-12-09T12:35:58.467Z,7.49
2022-12-09T12:38:36.961Z,7.46
2022-12-09T12:41:12.995Z,7.33
2022-12-09T12:44:23.052Z,7.16
2022-12-09T12:47:03.247Z,7.15
2022-12-09T12:49:42.409Z,7.09
2022-12-09T12:52:54.247Z,7.04
2022-12-09T12:55:23.687Z,7.04
2022-12-09T12:58:01.762Z,7.08
2022-12-09T13:00:38.186Z,7.04
2022-12-09T13:03:20.846Z,7.05
2022-12-09T13:05:52.353Z,6.94
2022-12-09T13:08:27.828Z,6.91
2022-12-09T13:10:58.625Z,6.98
2022-12-09T13:13:32.071Z,7.02
2022-12-09T13:16:07.293Z,7.07
2022-12-09T13:18:38.680Z,7.06
2022-12-09T13:21:07.928Z,7.01
2022-12-09T13:23:52.363Z,6.96
2022-12-09T13:26:27.941Z,6.92
2022-12-09T13:29:02.699Z,6.91
2022-12-09T13:31:34.030Z,6.93
2022-12-09T13:34:18.199Z,6.91
2022-12-09T13:36:47.624Z,6.90
2022-12-09T13:39:53.860Z,6.82
2022-12-09T13:42:56.251Z,6.80
2022-12-09T13:45:35.549Z,6.68
2022-12-09T13:48:13.341Z,6.67
2022-12-09T13:50:57.106Z,6.70
2022-12-09T13:53:30.403Z,6.79
2022-12-09T13:56:00.573Z,6.86
2022-12-09T13:58:53.382Z,6.92
2022-12-09T14:01:25.411Z,6.92
2022-12-09T14:04:02.209Z,6.91
2022-12-09T14:06:33.552Z,6.88
2022-12-09T14:09:04.818Z,6.87
2022-12-09T14:11:47.148Z,6.92
2022-12-09T14:14:38.508Z,6.84
2022-12-09T14:17:21.192Z,6.84
2022-12-09T14:20:01.395Z,6.88
2022-12-09T14:22:34.178Z,6.84
2022-12-09T14:25:35.048Z,6.71
2022-12-09T14:28:26.180Z,6.59
2022-12-09T14:30:56.219Z,6.61
2022-12-09T14:33:31.991Z,6.64
2022-12-09T14:36:06.551Z,6.69
2022-12-09T14:39:07.781Z,6.74
2022-12-09T14:41:35.759Z,6.79
2022-12-09T14:44:16.745Z,6.73
2022-12-09T14:46:47.209Z,6.74
2022-12-09T14:49:19.670Z,6.78
2022-12-09T14:51:51.293Z,6.70
2022-12-09T14:54:23.029Z,6.67
2022-12-09T14:56:52.866Z,6.72
2022-12-09T14:59:23.233Z,6.75
2022-12-09T15:01:53.400Z,6.78
2022-12-09T15:04:26.947Z,6.74
2022-12-09T15:07:13.710Z,6.65
2022-12-09T15:09:53.575Z,6.62
2022-12-09T15:12:24.214Z,6.59
2022-12-09T15:14:57.681Z,6.49
2022-12-09T15:17:29.884Z,6.47
2022-12-09T15:20:00.597Z,6.47
2022-12-09T15:22:32.326Z,6.47
2022-12-09T15:25:02.406Z,6.52
2022-12-09T15:27:31.417Z,6.45
2022-12-09T15:29:59.208Z,6.43
2022-12-09T15:32:29.536Z,6.37
2022-12-09T15:35:16.836Z,6.35
2022-12-09T15:37:46.336Z,6.33
2022-12-09T15:40:19.630Z,6.35
2022-12-09T15:42:51.597Z,6.33
2022-12-09T15:45:22.339Z,6.29
2022-12-09T15:47:54.709Z,6.21
2022-12-09T15:50:25.438Z,6.19
2022-12-09T15:52:57.045Z,6.25
2022-12-09T15:55:29.471Z,6.34
2022-12-09T15:58:00.526Z,6.37
2022-12-09T16:00:28.302Z,6.37
2022-12-09T16:02:57.290Z,6.41
2022-12-09T16:05:26.771Z,6.45
2022-12-09T16:08:01.143Z,6.45
2022-12-09T16:10:29.969Z,6.47
2022-12-09T16:13:09.708Z,6.49
2022-12-09T16:15:44.012Z,6.48
2022-12-09T16:18:16.992Z,6.36
2022-12-09T16:20:45.857Z,6.22
2022-12-09T16:23:22.441Z,6.24
2022-12-09T16:25:51.270Z,6.27
2022-12-09T16:28:24.066Z,6.29
2022-12-09T16:30:55.479Z,6.33
2022-12-09T16:33:24.775Z,6.42
2022-12-09T16:35:59.121Z,6.42
2022-12-09T16:38:28.305Z,6.35
2022-12-09T16:41:05.401Z,6.33
2022-12-09T16:43:33.940Z,6.32
2022-12-09T16:46:03.509Z,6.39
2022-12-09T16:48:31.769Z,6.36
2022-12-09T16:51:07.467Z,6.35
2022-12-09T16:53:42.132Z,6.39
2022-12-09T16:56:19.761Z,6.42
2022-12-09T16:58:47.571Z,6.31
2022-12-09T17:01:17.476Z,6.33
2022-12-09T17:03:49.481Z,6.34
2022-12-09T17:06:20.422Z,6.27
2022-12-09T17:08:49.642Z,6.22
2022-12-09T17:11:18.786Z,6.25
2022-12-09T17:13:46.576Z,6.19
2022-12-09T17:16:14.457Z,6.17
2022-12-09T17:18:42.511Z,6.19
2022-12-09T17:21:12.514Z,6.11
2022-12-09T17:23:41.113Z,6.15
2022-12-09T17:26:11.971Z,6.19
2022-12-09T17:28:40.098Z,6.25
2022-12-09T17:31:09.866Z,6.24
2022-12-09T17:33:38.327Z,6.25
2022-12-09T17:36:07.336Z,6.30
2022-12-09T17:38:35.332Z,6.34
2022-12-09T17:41:08.006Z,6.32
2022-12-09T17:43:37.742Z,6.27
2022-12-09T17:46:07.369Z,6.25
2022-12-09T17:48:36.321Z,6.25
2022-12-09T17:51:07.714Z,6.20
2022-12-09T17:53:37.116Z,6.12
2022-12-09T17:56:09.314Z,6.15
2022-12-09T17:58:39.029Z,6.14
2022-12-09T18:01:14.203Z,6.13
2022-12-09T18:04:01.327Z,6.11
2022-12-09T18:06:34.229Z,6.21
2022-12-09T18:09:02.633Z,6.25
2022-12-09T18:11:30.628Z,6.27
2022-12-09T18:14:00.137Z,6.23
2022-12-09T18:16:28.115Z,6.14
2022-12-09T18:18:55.969Z,6.17
2022-12-09T18:21:23.760Z,6.18
2022-12-09T18:23:51.596Z,6.20
2022-12-09T18:26:20.071Z,6.08
2022-12-09T18:28:47.870Z,6.00
2022-12-09T18:31:19.101Z,5.97
2022-12-09T18:33:47.223Z,5.91
2022-12-09T18:36:17.564Z,5.89
2022-12-09T18:38:45.970Z,5.88
2022-12-09T18:41:14.990Z,5.83
2022-12-09T18:43:45.259Z,5.81
2022-12-09T18:46:15.708Z,5.81
2022-12-09T18:48:47.295Z,5.77
2022-12-09T18:51:16.756Z,5.74
2022-12-09T18:53:44.849Z,5.74
2022-12-09T18:56:13.405Z,5.73
2022-12-09T18:59:05.446Z,5.70
2022-12-09T19:01:30.770Z,5.68
2022-12-09T19:04:04.623Z,5.63
2022-12-09T19:06:37.399Z,5.63
2022-12-09T19:09:07.599Z,5.73
2022-12-09T19:11:37.051Z,5.80
2022-12-09T19:14:06.247Z,5.84
2022-12-09T19:16:34.122Z,5.89
2022-12-09T19:19:09.102Z,5.83
2022-12-09T19:21:37.907Z,5.83
2022-12-09T19:24:06.298Z,5.84
2022-12-09T19:26:36.450Z,5.90
2022-12-09T19:29:07.461Z,5.94
2022-12-09T19:31:37.735Z,5.89
2022-12-09T19:34:08.959Z,5.93
2022-12-09T19:36:36.711Z,6.00
2022-12-09T19:39:08.151Z,5.96
2022-12-09T19:41:36.290Z,5.94
2022-12-09T19:44:05.138Z,5.91
2022-12-09T19:46:33.967Z,5.86
2022-12-09T19:49:02.564Z,5.78
2022-12-09T19:51:32.170Z,5.85
2022-12-09T19:54:01.904Z,5.87
2022-12-09T19:56:30.544Z,5.80
2022-12-09T19:58:58.491Z,5.76
2022-12-09T20:01:28.326Z,5.71
2022-12-09T20:04:05.268Z,5.75
2022-12-09T20:06:43.388Z,5.66
2022-12-09T20:09:13.819Z,5.65
2022-12-09T20:11:43.068Z,5.67
2022-12-09T20:14:13.728Z,5.68
2022-12-09T20:16:41.885Z,5.64
2022-12-09T20:19:09.616Z,5.73
2022-12-09T20:21:37.738Z,5.76
2022-12-09T20:24:07.919Z,5.73
2022-12-09T20:26:37.236Z,5.68
2022-12-09T20:29:07.363Z,5.66
2022-12-09T20:31:36.696Z,5.77
2022-12-09T20:34:06.443Z,5.68
2022-12-09T20:36:36.054Z,5.64
2022-12-09T20:39:11.167Z,5.74
2022-12-09T20:41:39.605Z,5.73
2022-12-09T20:44:07.286Z,5.81
2022-12-09T20:46:35.537Z,5.80
2022-12-09T20:49:03.385Z,5.79
2022-12-09T20:51:33.162Z,5.71
2022-12-09T20:54:02.136Z,5.82
2022-12-09T20:56:31.154Z,5.81
2022-12-09T20:58:59.324Z,5.74
2022-12-09T21:01:29.013Z,5.74
2022-12-09T21:03:58.706Z,5.71
2022-12-09T21:06:30.425Z,5.68
2022-12-09T21:09:01.114Z,5.70
2022-12-09T21:11:29.012Z,5.72
2022-12-09T21:14:00.692Z,5.86
2022-12-09T21:16:29.903Z,5.79
2022-12-09T21:18:59.645Z,5.72
2022-12-09T21:21:30.602Z,5.68
2022-12-09T21:23:58.518Z,5.68
2022-12-09T21:26:26.665Z,5.67
2022-12-09T21:28:55.297Z,5.72
2022-12-09T21:31:26.432Z,5.64
2022-12-09T21:33:56.742Z,5.58
2022-12-09T21:36:26.733Z,5.60
2022-12-09T21:38:56.178Z,5.59
2022-12-09T21:41:25.606Z,5.55
2022-12-09T21:43:55.033Z,5.61
2022-12-09T21:46:26.675Z,5.60
2022-12-09T21:49:00.120Z,5.64
2022-12-09T21:51:31.657Z,5.49
2022-12-09T21:53:59.975Z,5.50
2022-12-09T21:56:30.648Z,5.54
2022-12-09T21:58:59.692Z,5.55
2022-12-09T22:01:31.163Z,5.60
2022-12-09T22:04:00.614Z,5.52
2022-12-09T22:06:29.055Z,5.47
2022-12-09T22:08:56.790Z,5.51
2022-12-09T22:11:26.425Z,5.53
2022-12-09T22:13:54.140Z,5.54
2022-12-09T22:16:23.650Z,5.58
2022-12-09T22:18:54.182Z,5.58
2022-12-09T22:21:25.713Z,5.55
2022-12-09T22:23:54.547Z,5.49
2022-12-09T22:26:22.979Z,5.47
2022-12-09T22:28:51.084Z,5.50
2022-12-09T22:31:21.367Z,5.51
2022-12-09T22:33:50.064Z,5.54
2022-12-09T22:36:20.638Z,5.50
2022-12-09T22:38:48.954Z,5.44
2022-12-09T22:41:19.022Z,5.53
2022-12-09T22:43:48.179Z,5.49
2022-12-09T22:46:17.631Z,5.40
2022-12-09T22:48:45.487Z,5.36
2022-12-09T22:51:15.468Z,5.48
2022-12-09T22:53:44.989Z,5.47
2022-12-09T22:56:13.419Z,5.43
2022-12-09T22:58:41.370Z,5.41
2022-12-09T23:01:11.938Z,5.41
2022-12-09T23:03:40.564Z,5.44
2022-12-09T23:06:09.111Z,5.44
2022-12-09T23:08:38.235Z,5.39
2022-12-09T23:11:09.648Z,5.41
2022-12-09T23:13:40.877Z,5.36
2022-12-09T23:16:12.437Z,5.41
2022-12-09T23:18:40.816Z,5.48
2022-12-09T23:21:10.783Z,5.41
2022-12-09T23:23:39.008Z,5.39
2022-12-09T23:26:09.923Z,5.44
2022-12-09T23:28:38.267Z,5.42
2022-12-09T23:31:08.850Z,5.50
2022-12-09T23:33:36.741Z,5.48
2022-12-09T23:36:08.157Z,5.52
2022-12-09T23:38:36.160Z,5.47
2022-12-09T23:41:04.482Z,5.43
2022-12-09T23:43:34.312Z,5.38
2022-12-09T23:46:02.774Z,5.43
2022-12-09T23:48:30.526Z,5.43
2022-12-09T23:51:00.004Z,5.40
2022-12-09T23:53:27.769Z,5.39
2022-12-09T23:55:55.412Z,5.31
2022-12-09T23:58:23.098Z,5.29
